Terminal Aerodrome Forecast
Issued by NWS

Home | Current Version | Previous Version | Text Only | Print | Product List | Glossary On
Versions: 1 2 3 4 5 6 7 8 9 10 11 12 13
000
FTUS45 KPSR 042320
TAFBLH
TAF
KBLH 042320Z 0500/0524 18014G21KT P6SM SCT100 BKN250
     FM050800 19010KT P6SM SCT150 SCT250
     FM051700 17015G21KT P6SM FEW110 FEW250=

USA.gov is the U.S. government's official web portal to all federal, state and local government web resources and services.